createdAt,value
2022-10-25T00:01:21.425Z,2.88
2022-10-25T00:03:49.404Z,3.53
2022-10-25T00:06:17.727Z,7.72
2022-10-25T00:08:45.795Z,4.38
2022-10-25T00:11:19.182Z,8.07
2022-10-25T00:13:49.918Z,3.10
2022-10-25T00:16:19.423Z,3.83
2022-10-25T00:18:47.791Z,3.85
2022-10-25T00:21:15.683Z,5.68
2022-10-25T00:23:43.542Z,7.18
2022-10-25T00:26:12.575Z,3.70
2022-10-25T00:28:41.079Z,6.38
2022-10-25T00:31:12.246Z,6.82
2022-10-25T00:33:40.855Z,4.60
2022-10-25T00:36:10.929Z,7.80
2022-10-25T00:38:39.180Z,6.05
2022-10-25T00:41:08.017Z,6.15
2022-10-25T00:43:37.586Z,6.75
2022-10-25T00:46:11.765Z,6.75
2022-10-25T00:48:43.168Z,4.45
2022-10-25T00:51:11.129Z,10.82
2022-10-25T00:53:39.339Z,4.50
2022-10-25T00:56:14.499Z,5.93
2022-10-25T00:58:45.537Z,4.15
2022-10-25T01:01:14.803Z,6.82
2022-10-25T01:03:48.355Z,4.28
2022-10-25T01:06:19.929Z,4.60
2022-10-25T01:08:51.099Z,3.63
2022-10-25T01:11:20.630Z,4.32
2022-10-25T01:13:49.845Z,5.47
2022-10-25T01:16:25.457Z,5.93
2022-10-25T01:19:06.366Z,4.50
2022-10-25T01:21:48.753Z,6.20
2022-10-25T01:24:44.174Z,4.78
2022-10-25T01:27:25.827Z,6.32
2022-10-25T01:30:13.830Z,5.15
2022-10-25T01:32:50.739Z,5.25
2022-10-25T01:35:27.510Z,7.85
2022-10-25T01:38:06.563Z,5.10
2022-10-25T01:40:43.260Z,6.25
2022-10-25T01:43:22.154Z,3.80
2022-10-25T01:45:57.176Z,7.22
2022-10-25T01:48:33.189Z,3.47
2022-10-25T01:51:09.822Z,6.85
2022-10-25T01:53:49.155Z,4.72
2022-10-25T01:56:24.846Z,4.53
2022-10-25T01:59:19.751Z,3.65
2022-10-25T02:02:01.083Z,7.70
2022-10-25T02:04:40.909Z,6.22
2022-10-25T02:07:12.537Z,7.05
2022-10-25T02:09:50.894Z,4.10
2022-10-25T02:12:26.176Z,6.82
2022-10-25T02:15:03.883Z,8.45
2022-10-25T02:17:35.103Z,6.10
2022-10-25T02:20:07.864Z,10.60
2022-10-25T02:22:36.096Z,7.78
2022-10-25T02:25:04.900Z,5.53
2022-10-25T02:27:33.751Z,6.43
2022-10-25T02:30:02.959Z,9.05
2022-10-25T02:32:32.524Z,10.48
2022-10-25T02:35:00.388Z,10.80
2022-10-25T02:37:30.528Z,8.15
2022-10-25T02:39:58.595Z,7.55
2022-10-25T02:42:26.509Z,10.70
2022-10-25T02:44:54.297Z,7.38
2022-10-25T02:47:22.173Z,6.90
2022-10-25T02:49:50.007Z,9.10
2022-10-25T02:52:17.918Z,12.18
2022-10-25T02:54:47.114Z,9.00
2022-10-25T02:57:15.161Z,6.45
2022-10-25T02:59:42.900Z,10.02
2022-10-25T03:02:13.156Z,7.22
2022-10-25T03:07:08.680Z,6.13
2022-10-25T03:09:36.501Z,8.05
2022-10-25T03:12:05.897Z,5.32
2022-10-25T03:14:33.841Z,7.20
2022-10-25T03:17:01.571Z,12.13
2022-10-25T03:19:29.426Z,10.02
2022-10-25T03:21:57.375Z,9.95
2022-10-25T03:24:25.246Z,9.68
2022-10-25T03:26:53.280Z,7.93
2022-10-25T03:29:22.639Z,8.85
2022-10-25T03:31:50.650Z,5.40
2022-10-25T03:34:18.478Z,7.03
2022-10-25T03:36:46.288Z,7.47
2022-10-25T03:39:14.395Z,4.38
2022-10-25T03:41:42.739Z,5.00
2022-10-25T03:44:10.629Z,8.05
2022-10-25T03:46:39.883Z,8.63
2022-10-25T03:49:08.246Z,14.82
2022-10-25T03:51:36.064Z,5.40
2022-10-25T03:54:04.210Z,11.65
2022-10-25T03:56:32.011Z,7.32
2022-10-25T03:58:59.844Z,9.73
2022-10-25T04:01:27.742Z,6.93
2022-10-25T04:03:56.993Z,4.80
2022-10-25T04:06:24.819Z,8.10
2022-10-25T04:08:52.652Z,8.60
2022-10-25T04:11:20.683Z,9.65
2022-10-25T04:13:48.597Z,4.75
2022-10-25T04:16:19.025Z,8.18
2022-10-25T04:18:47.046Z,8.88
2022-10-25T04:21:16.296Z,5.90
2022-10-25T04:23:44.128Z,7.80
2022-10-25T04:26:14.564Z,5.95
2022-10-25T04:28:42.394Z,9.15
2022-10-25T04:31:10.294Z,9.15
2022-10-25T04:33:38.177Z,8.15
2022-10-25T04:36:06.806Z,8.90
2022-10-25T04:38:36.221Z,7.57
2022-10-25T04:41:04.129Z,7.83
2022-10-25T04:43:31.916Z,7.57
2022-10-25T04:46:00.907Z,6.57
2022-10-25T04:48:28.986Z,8.07
2022-10-25T04:51:00.252Z,7.50
2022-10-25T04:53:28.785Z,7.28
2022-10-25T04:55:58.599Z,7.07
2022-10-25T04:58:31.288Z,5.57
2022-10-25T05:01:02.282Z,6.63
2022-10-25T05:03:30.560Z,12.55
2022-10-25T05:06:06.637Z,7.90
2022-10-25T05:08:34.861Z,4.00
2022-10-25T05:11:04.480Z,6.90
2022-10-25T05:13:33.999Z,8.57
2022-10-25T05:16:01.883Z,5.80
2022-10-25T05:18:31.040Z,8.15
2022-10-25T05:21:00.549Z,7.10
2022-10-25T05:23:29.415Z,7.10
2022-10-25T05:26:07.673Z,9.20
2022-10-25T05:28:37.039Z,9.20
2022-10-25T05:31:05.817Z,7.07
2022-10-25T05:33:34.505Z,6.43
2022-10-25T05:36:03.184Z,5.25
2022-10-25T05:38:34.298Z,13.25
2022-10-25T05:41:08.241Z,8.63
2022-10-25T05:43:36.087Z,8.00
2022-10-25T05:46:06.685Z,6.15
2022-10-25T05:48:36.258Z,9.20
2022-10-25T05:51:32.445Z,6.25
2022-10-25T05:54:01.551Z,8.05
2022-10-25T05:56:32.142Z,5.78
2022-10-25T05:59:03.588Z,7.47
2022-10-25T06:01:31.510Z,9.65
2022-10-25T06:03:59.416Z,6.90
2022-10-25T06:06:27.348Z,7.55
2022-10-25T06:08:58.022Z,13.50
2022-10-25T06:11:27.530Z,8.02
2022-10-25T06:13:56.732Z,7.47
2022-10-25T06:16:24.962Z,12.07
2022-10-25T06:18:53.849Z,7.50
2022-10-25T06:21:24.184Z,6.93
2022-10-25T06:23:52.483Z,9.93
2022-10-25T06:26:22.550Z,6.97
2022-10-25T06:28:53.833Z,7.68
2022-10-25T06:31:23.589Z,8.10
2022-10-25T06:33:51.742Z,10.93
2022-10-25T06:36:21.708Z,6.68
2022-10-25T06:38:50.443Z,8.65
2022-10-25T06:41:19.607Z,7.72
2022-10-25T06:43:47.438Z,12.85
2022-10-25T06:46:21.408Z,8.25
2022-10-25T06:48:50.933Z,10.20
2022-10-25T06:51:19.129Z,8.25
2022-10-25T06:53:47.052Z,8.02
2022-10-25T06:56:15.639Z,8.95
2022-10-25T06:58:43.900Z,9.35
2022-10-25T07:01:13.642Z,7.20
2022-10-25T07:03:42.378Z,9.48
2022-10-25T07:06:13.736Z,6.22
2022-10-25T07:08:43.870Z,7.13
2022-10-25T07:11:18.787Z,10.90
2022-10-25T07:13:47.444Z,7.63
2022-10-25T07:16:16.600Z,8.98
2022-10-25T07:18:45.104Z,6.88
2022-10-25T07:21:15.963Z,8.75
2022-10-25T07:23:44.791Z,7.53
2022-10-25T07:26:14.954Z,8.82
2022-10-25T07:28:44.155Z,9.15
2022-10-25T07:31:13.464Z,12.43
2022-10-25T07:33:41.836Z,6.23
2022-10-25T07:36:11.387Z,9.45
2022-10-25T07:38:41.506Z,10.70
2022-10-25T07:43:39.259Z,6.57
2022-10-25T07:46:07.942Z,7.80
2022-10-25T07:48:36.694Z,8.55
2022-10-25T07:51:05.983Z,9.20
2022-10-25T07:53:33.890Z,6.97
2022-10-25T07:56:03.550Z,12.45
2022-10-25T07:58:31.493Z,8.52
2022-10-25T08:01:03.410Z,6.43
2022-10-25T08:03:31.881Z,7.25
2022-10-25T08:06:00.318Z,12.43
2022-10-25T08:08:28.647Z,6.35
2022-10-25T08:10:57.140Z,9.63
2022-10-25T08:13:27.636Z,8.32
2022-10-25T08:15:57.175Z,10.98
2022-10-25T08:18:25.645Z,10.88
2022-10-25T08:21:02.151Z,9.35
2022-10-25T08:23:31.417Z,8.82
2022-10-25T08:25:59.631Z,7.28
2022-10-25T08:28:30.977Z,11.20
2022-10-25T08:31:01.079Z,8.57
2022-10-25T08:33:29.464Z,12.38
2022-10-25T08:36:00.037Z,6.70
2022-10-25T08:38:27.932Z,7.53
2022-10-25T08:41:04.278Z,9.75
2022-10-25T08:43:56.793Z,9.38
2022-10-25T08:46:28.587Z,7.55
2022-10-25T08:49:07.812Z,8.77
2022-10-25T08:51:39.548Z,5.53
2022-10-25T08:54:22.195Z,6.43
2022-10-25T08:57:10.706Z,9.75
2022-10-25T08:59:47.061Z,6.13
2022-10-25T09:02:23.152Z,10.00
2022-10-25T09:04:51.208Z,7.05
2022-10-25T09:07:43.167Z,9.80
2022-10-25T09:10:22.849Z,7.60
2022-10-25T09:12:59.737Z,8.85
2022-10-25T09:15:44.170Z,7.35
2022-10-25T09:18:17.805Z,11.43
2022-10-25T09:20:50.162Z,8.35
2022-10-25T09:23:27.160Z,11.32
2022-10-25T09:26:02.933Z,11.07
2022-10-25T09:28:46.078Z,9.70
2022-10-25T09:31:19.506Z,7.50
2022-10-25T09:33:48.858Z,9.85
2022-10-25T09:36:16.766Z,7.93
2022-10-25T09:38:50.287Z,6.35
2022-10-25T09:41:23.795Z,8.02
2022-10-25T09:43:57.693Z,10.43
2022-10-25T09:46:36.925Z,6.65
2022-10-25T09:49:15.288Z,8.60
2022-10-25T09:51:51.699Z,8.07
2022-10-25T09:54:28.741Z,10.10
2022-10-25T09:56:56.735Z,6.57
2022-10-25T09:59:24.625Z,9.07
2022-10-25T10:01:54.056Z,8.68
2022-10-25T10:04:35.270Z,10.52
2022-10-25T10:07:07.155Z,9.23
2022-10-25T10:09:40.107Z,9.77
2022-10-25T10:12:19.085Z,8.07
2022-10-25T10:14:54.902Z,6.22
2022-10-25T10:17:26.097Z,5.78
2022-10-25T10:20:11.225Z,9.07
2022-10-25T10:22:44.939Z,10.50
2022-10-25T10:25:22.524Z,6.38
2022-10-25T10:27:52.974Z,7.57
2022-10-25T10:30:24.603Z,8.57
2022-10-25T10:33:02.323Z,6.75
2022-10-25T10:35:33.175Z,11.32
2022-10-25T10:38:31.639Z,7.25
2022-10-25T10:41:14.815Z,7.80
2022-10-25T10:43:43.133Z,4.78
2022-10-25T10:46:15.320Z,9.73
2022-10-25T10:48:47.078Z,4.18
2022-10-25T10:54:24.574Z,9.00
2022-10-25T10:57:01.229Z,5.50
2022-10-25T10:59:34.691Z,10.48
2022-10-25T11:02:24.119Z,6.63
2022-10-25T11:04:55.820Z,8.77
2022-10-25T11:07:35.437Z,5.75
2022-10-25T11:10:25.215Z,7.70
2022-10-25T11:13:13.980Z,6.50
2022-10-25T11:16:08.427Z,7.95
2022-10-25T11:18:50.071Z,8.80
2022-10-25T11:21:40.085Z,7.38
2022-10-25T11:24:21.317Z,6.47
2022-10-25T11:27:00.683Z,7.05
2022-10-25T11:29:44.301Z,7.43
2022-10-25T11:32:32.224Z,6.22
2022-10-25T11:35:06.382Z,13.43
2022-10-25T11:37:43.601Z,7.47
2022-10-25T11:40:16.950Z,11.52
2022-10-25T11:43:01.812Z,6.32
2022-10-25T11:45:42.354Z,8.38
2022-10-25T11:48:26.203Z,6.30
2022-10-25T11:51:03.988Z,6.72
2022-10-25T11:53:46.895Z,5.50
2022-10-25T11:56:22.955Z,9.20
2022-10-25T11:59:06.906Z,7.88
2022-10-25T12:01:46.465Z,6.20
2022-10-25T12:04:37.799Z,5.32
2022-10-25T12:07:10.681Z,6.97
2022-10-25T12:09:50.389Z,7.93
2022-10-25T12:12:22.684Z,3.92
2022-10-25T12:14:55.425Z,4.68
2022-10-25T12:17:27.307Z,7.53
2022-10-25T12:19:58.308Z,6.13
2022-10-25T12:22:30.130Z,10.25
2022-10-25T12:25:01.602Z,11.57
2022-10-25T12:27:30.985Z,6.07
2022-10-25T12:30:03.582Z,6.70
2022-10-25T12:32:38.432Z,7.22
2022-10-25T12:35:15.097Z,5.55
2022-10-25T12:37:49.611Z,7.55
2022-10-25T12:40:22.150Z,7.40
2022-10-25T12:42:54.448Z,7.07
2022-10-25T12:45:58.250Z,5.85
2022-10-25T12:48:48.034Z,9.13
2022-10-25T12:51:30.733Z,5.27
2022-10-25T12:54:16.405Z,6.65
2022-10-25T12:57:01.717Z,5.20
2022-10-25T12:59:45.271Z,5.65
2022-10-25T13:02:37.209Z,5.45
2022-10-25T13:05:49.015Z,9.18
2022-10-25T13:08:19.746Z,8.73
2022-10-25T13:10:50.716Z,8.25
2022-10-25T13:13:25.089Z,10.20
2022-10-25T13:15:56.290Z,5.70
2022-10-25T13:18:39.271Z,12.57
2022-10-25T13:21:08.661Z,9.32
2022-10-25T13:23:59.923Z,6.60
2022-10-25T13:26:49.943Z,7.80
2022-10-25T13:29:47.849Z,8.60
2022-10-25T13:32:18.614Z,10.35
2022-10-25T13:34:46.884Z,8.43
2022-10-25T13:37:42.971Z,7.72
2022-10-25T13:40:28.589Z,7.80
2022-10-25T13:43:03.678Z,10.75
2022-10-25T13:45:39.256Z,8.70
2022-10-25T13:48:28.803Z,6.93
2022-10-25T13:50:59.293Z,5.88
2022-10-25T13:53:36.067Z,9.95
2022-10-25T13:56:07.255Z,12.45
2022-10-25T13:58:52.831Z,8.60
2022-10-25T14:01:58.271Z,7.78
2022-10-25T14:04:40.379Z,8.55
2022-10-25T14:07:44.366Z,9.40
2022-10-25T14:10:22.259Z,7.85
2022-10-25T14:12:53.575Z,6.13
2022-10-25T14:15:36.608Z,7.63
2022-10-25T14:18:13.171Z,8.10
2022-10-25T14:20:41.063Z,7.05
2022-10-25T14:23:16.896Z,12.75
2022-10-25T14:25:51.926Z,9.52
2022-10-25T14:28:24.929Z,10.15
2022-10-25T14:30:55.686Z,6.70
2022-10-25T14:33:30.365Z,8.07
2022-10-25T14:36:07.933Z,6.70
2022-10-25T14:38:49.686Z,7.47
2022-10-25T14:41:22.203Z,12.57
2022-10-25T14:43:50.314Z,11.55
2022-10-25T14:46:19.518Z,7.22
2022-10-25T14:48:49.744Z,6.22
2022-10-25T14:53:56.781Z,11.52
2022-10-25T14:56:29.960Z,13.85
2022-10-25T14:58:58.774Z,10.68
2022-10-25T15:01:27.321Z,11.35
2022-10-25T15:03:59.169Z,7.95
2022-10-25T15:06:30.831Z,10.18
2022-10-25T15:09:37.023Z,8.00
2022-10-25T15:12:06.240Z,9.75
2022-10-25T15:14:35.249Z,9.00
2022-10-25T15:17:04.099Z,9.25
2022-10-25T15:19:33.356Z,9.77
2022-10-25T15:22:10.645Z,9.23
2022-10-25T15:24:46.199Z,8.90
2022-10-25T15:27:28.021Z,8.98
2022-10-25T15:29:55.956Z,12.48
2022-10-25T15:32:26.489Z,9.25
2022-10-25T15:34:57.695Z,9.35
2022-10-25T15:37:27.030Z,10.27
2022-10-25T15:39:56.376Z,11.67
2022-10-25T15:42:26.708Z,12.70
2022-10-25T15:47:29.668Z,13.32
2022-10-25T15:49:59.946Z,12.90
2022-10-25T15:54:55.839Z,11.13
2022-10-25T15:57:23.771Z,12.23
2022-10-25T15:59:51.600Z,8.90
2022-10-25T16:02:21.876Z,9.90
2022-10-25T16:04:50.118Z,11.30
2022-10-25T16:07:19.310Z,9.35
2022-10-25T16:09:47.361Z,10.77
2022-10-25T16:12:21.540Z,10.60
2022-10-25T16:14:52.017Z,10.93
2022-10-25T16:17:19.875Z,10.77
2022-10-25T16:19:47.752Z,10.00
2022-10-25T16:22:15.639Z,14.15
2022-10-25T16:24:44.911Z,11.35
2022-10-25T16:27:13.290Z,8.45
2022-10-25T16:29:41.496Z,8.52
2022-10-25T16:32:09.433Z,11.55
2022-10-25T16:34:38.208Z,10.20
2022-10-25T16:37:09.206Z,8.77
2022-10-25T16:39:39.473Z,15.48
2022-10-25T16:42:30.088Z,13.95
2022-10-25T16:44:58.675Z,12.88
2022-10-25T16:47:26.762Z,14.52
2022-10-25T16:49:55.016Z,12.57
2022-10-25T16:52:23.137Z,12.98
2022-10-25T16:54:51.075Z,10.82
2022-10-25T16:57:18.950Z,13.80
2022-10-25T16:59:48.375Z,13.13
2022-10-25T17:02:18.099Z,18.05
2022-10-25T17:04:46.078Z,14.13
2022-10-25T17:07:13.934Z,13.23
2022-10-25T17:09:41.963Z,45.75
2022-10-25T17:12:10.614Z,28.67
2022-10-25T17:14:38.696Z,29.90
2022-10-25T17:17:07.945Z,24.30
2022-10-25T17:19:36.227Z,26.23
2022-10-25T17:22:04.149Z,33.88
2022-10-25T17:24:36.121Z,27.73
2022-10-25T17:29:37.580Z,34.28
2022-10-25T17:32:07.266Z,23.55
2022-10-25T17:34:35.145Z,21.58
2022-10-25T17:37:03.753Z,14.18
2022-10-25T17:39:31.846Z,17.60
2022-10-25T17:42:00.011Z,19.98
2022-10-25T17:44:27.960Z,16.08
2022-10-25T17:46:57.387Z,19.90
2022-10-25T17:49:28.880Z,18.48
2022-10-25T17:51:56.742Z,27.27
2022-10-25T17:54:24.969Z,22.23
2022-10-25T17:56:56.370Z,17.27
2022-10-25T17:59:24.288Z,17.75
2022-10-25T18:01:52.183Z,20.80
2022-10-25T18:04:20.164Z,17.08
2022-10-25T18:06:49.452Z,17.45
2022-10-25T18:09:18.035Z,19.88
2022-10-25T18:11:46.303Z,15.60
2022-10-25T18:14:14.319Z,16.27
2022-10-25T18:16:42.516Z,14.82
2022-10-25T18:19:14.281Z,11.80
2022-10-25T18:21:42.957Z,11.82
2022-10-25T18:24:14.561Z,15.32
2022-10-25T18:26:42.496Z,22.67
2022-10-25T18:29:10.947Z,17.05
2022-10-25T18:31:38.751Z,19.20
2022-10-25T18:34:06.706Z,13.75
2022-10-25T18:36:34.638Z,15.30
2022-10-25T18:39:02.599Z,14.90
2022-10-25T18:41:33.635Z,17.95
2022-10-25T18:44:02.750Z,19.48
2022-10-25T18:46:32.497Z,15.43
2022-10-25T18:49:00.420Z,15.57
2022-10-25T18:51:29.758Z,13.57
2022-10-25T18:53:58.802Z,17.83
2022-10-25T18:56:27.115Z,19.08
2022-10-25T18:58:58.943Z,16.45
2022-10-25T19:01:32.516Z,15.52
2022-10-25T19:04:01.771Z,17.08
2022-10-25T19:06:29.704Z,15.15
2022-10-25T19:08:57.888Z,14.63
2022-10-25T19:11:25.827Z,11.63
2022-10-25T19:13:54.953Z,12.20
2022-10-25T19:16:24.798Z,11.98
2022-10-25T19:18:52.846Z,26.77
2022-10-25T19:21:22.037Z,11.50
2022-10-25T19:23:50.158Z,13.20
2022-10-25T19:26:19.745Z,13.77
2022-10-25T19:28:48.112Z,15.82
2022-10-25T19:31:18.395Z,15.05
2022-10-25T19:36:16.708Z,13.20
2022-10-25T19:38:46.037Z,19.33
2022-10-25T19:41:16.150Z,17.10
2022-10-25T19:43:44.162Z,13.77
2022-10-25T19:46:12.540Z,12.23
2022-10-25T19:48:40.390Z,11.10
2022-10-25T19:51:11.924Z,10.25
2022-10-25T19:53:40.024Z,10.95
2022-10-25T19:56:09.776Z,11.32
2022-10-25T19:58:37.778Z,13.98
2022-10-25T20:01:09.489Z,19.02
2022-10-25T20:03:38.391Z,14.38
2022-10-25T20:06:10.292Z,12.50
2022-10-25T20:08:40.100Z,13.13
2022-10-25T20:11:08.797Z,14.27
2022-10-25T20:13:36.997Z,15.13
2022-10-25T20:16:05.561Z,16.73
2022-10-25T20:18:35.597Z,23.65
2022-10-25T20:21:06.068Z,22.52
2022-10-25T20:23:35.979Z,23.13
2022-10-25T20:26:12.083Z,20.17
2022-10-25T20:28:39.961Z,19.17
2022-10-25T20:31:08.236Z,19.88
2022-10-25T20:33:36.113Z,19.92
2022-10-25T20:36:05.491Z,19.50
2022-10-25T20:38:33.330Z,18.10
2022-10-25T20:41:05.452Z,17.98
2022-10-25T20:43:34.095Z,17.85
2022-10-25T20:46:02.083Z,17.08
2022-10-25T20:48:30.454Z,18.67
2022-10-25T20:50:58.622Z,18.35
2022-10-25T20:53:26.520Z,19.13
2022-10-25T20:55:54.605Z,20.05
2022-10-25T20:58:24.707Z,18.60
2022-10-25T21:00:56.288Z,23.70
2022-10-25T21:03:25.287Z,26.70
2022-10-25T21:05:53.872Z,39.60
2022-10-25T21:08:22.865Z,30.15
2022-10-25T21:10:54.715Z,32.30
2022-10-25T21:13:24.400Z,32.58
2022-10-25T21:15:53.058Z,33.63
2022-10-25T21:18:21.496Z,32.67
2022-10-25T21:20:49.956Z,31.27
2022-10-25T21:23:17.869Z,41.42
2022-10-25T21:25:45.794Z,31.27
2022-10-25T21:28:13.654Z,36.22
2022-10-25T21:30:43.685Z,28.90
2022-10-25T21:33:11.470Z,27.33
2022-10-25T21:35:39.331Z,33.95
2022-10-25T21:38:07.157Z,24.88
2022-10-25T21:40:34.976Z,32.80
2022-10-25T21:43:02.868Z,27.67
2022-10-25T21:45:30.704Z,25.90
2022-10-25T21:47:59.968Z,22.33
2022-10-25T21:50:28.075Z,21.92
2022-10-25T21:52:55.865Z,36.67
2022-10-25T21:55:23.750Z,26.10
2022-10-25T21:57:54.263Z,23.27
2022-10-25T22:00:22.585Z,23.70
2022-10-25T22:02:50.467Z,20.42
2022-10-25T22:05:19.980Z,19.88
2022-10-25T22:07:48.115Z,23.08
2022-10-25T22:10:16.327Z,21.58
2022-10-25T22:12:44.206Z,20.30
2022-10-25T22:15:12.045Z,59.42
2022-10-25T22:17:39.930Z,48.35
2022-10-25T22:20:09.195Z,33.05
2022-10-25T22:22:38.445Z,32.67
2022-10-25T22:25:06.914Z,30.02
2022-10-25T22:27:35.113Z,22.48
2022-10-25T22:30:03.281Z,22.13
2022-10-25T22:32:31.270Z,27.20
2022-10-25T22:34:59.083Z,24.23
2022-10-25T22:37:26.972Z,18.50
2022-10-25T22:39:56.252Z,18.90
2022-10-25T22:42:25.744Z,21.67
2022-10-25T22:44:53.678Z,17.73
2022-10-25T22:47:21.472Z,18.10
2022-10-25T22:49:49.379Z,18.40
2022-10-25T22:52:17.095Z,57.85
2022-10-25T22:54:45.681Z,28.23
2022-10-25T22:57:14.857Z,39.97
2022-10-25T22:59:42.696Z,27.77
2022-10-25T23:02:10.537Z,27.98
2022-10-25T23:04:38.540Z,30.98
2022-10-25T23:07:06.363Z,32.58
2022-10-25T23:09:34.234Z,34.20
2022-10-25T23:12:02.082Z,37.60
2022-10-25T23:14:31.299Z,27.75
2022-10-25T23:16:59.153Z,16.48
2022-10-25T23:19:26.949Z,19.90
2022-10-25T23:21:54.786Z,32.85
2022-10-25T23:24:22.698Z,28.05
2022-10-25T23:26:50.721Z,24.88
2022-10-25T23:29:18.672Z,32.90
2022-10-25T23:31:47.961Z,34.03
2022-10-25T23:34:15.792Z,22.75
2022-10-25T23:36:43.674Z,24.95
2022-10-25T23:39:11.643Z,51.60
2022-10-25T23:41:39.546Z,29.10
2022-10-25T23:44:07.388Z,18.55
2022-10-25T23:46:35.236Z,20.80
2022-10-25T23:49:04.488Z,30.63
2022-10-25T23:51:32.608Z,31.83
2022-10-25T23:54:00.504Z,24.02
2022-10-25T23:56:28.386Z,18.75
2022-10-25T23:58:56.243Z,22.45
